createdAt,value
2022-12-12T00:01:47.059Z,-1.51
2022-12-12T00:04:13.803Z,-1.55
2022-12-12T00:06:40.428Z,-1.41
2022-12-12T00:09:07.188Z,-1.43
2022-12-12T00:11:33.872Z,-1.44
2022-12-12T00:14:00.499Z,-1.55
2022-12-12T00:16:28.123Z,-1.48
2022-12-12T00:18:54.817Z,-1.52
2022-12-12T00:21:24.515Z,-1.38
2022-12-12T00:23:51.392Z,-1.28
2022-12-12T00:26:23.592Z,-1.36
2022-12-12T00:28:50.347Z,-1.36
2022-12-12T00:31:17.412Z,-1.35
2022-12-12T00:33:49.061Z,-1.39
2022-12-12T00:36:21.633Z,-1.33
2022-12-12T00:38:49.117Z,-1.49
2022-12-12T00:41:16.391Z,-1.49
2022-12-12T00:43:43.133Z,-1.47
2022-12-12T00:46:14.312Z,-1.47
2022-12-12T00:48:41.218Z,-1.39
2022-12-12T00:51:10.112Z,-1.28
2022-12-12T00:53:37.851Z,-1.36
2022-12-12T00:56:04.975Z,-1.54
2022-12-12T00:58:32.931Z,-1.55
2022-12-12T01:01:06.564Z,-1.50
2022-12-12T01:03:34.381Z,-1.42
2022-12-12T01:06:00.991Z,-1.36
2022-12-12T01:08:28.219Z,-1.48
2022-12-12T01:10:56.532Z,-1.43
2022-12-12T01:13:23.483Z,-1.39
2022-12-12T01:15:50.440Z,-1.44
2022-12-12T01:18:17.641Z,-1.53
2022-12-12T01:20:44.916Z,-1.49
2022-12-12T01:23:11.691Z,-1.60
2022-12-12T01:25:38.496Z,-1.58
2022-12-12T01:28:05.344Z,-1.49
2022-12-12T01:30:32.634Z,-1.59
2022-12-12T01:32:59.377Z,-1.69
2022-12-12T01:35:26.334Z,-1.77
2022-12-12T01:37:54.321Z,-1.92
2022-12-12T01:40:25.601Z,-1.71
2022-12-12T01:42:53.209Z,-1.81
2022-12-12T01:45:57.583Z,-1.70
2022-12-12T01:48:44.367Z,-1.71
2022-12-12T01:51:14.790Z,-1.78
2022-12-12T01:53:41.713Z,-1.90
2022-12-12T01:56:12.512Z,-1.84
2022-12-12T01:58:44.174Z,-1.64
2022-12-12T02:01:11.547Z,-1.68
2022-12-12T02:03:39.015Z,-1.76
2022-12-12T02:06:07.897Z,-1.92
2022-12-12T02:08:34.575Z,-1.95
2022-12-12T02:11:01.266Z,-2.06
2022-12-12T02:13:29.617Z,-2.19
2022-12-12T02:16:22.432Z,-2.13
2022-12-12T02:18:58.267Z,-2.08
2022-12-12T02:21:33.349Z,-2.16
2022-12-12T02:24:06.199Z,-2.17
2022-12-12T02:26:51.194Z,-2.03
2022-12-12T02:29:41.971Z,-1.98
2022-12-12T02:32:25.983Z,-1.94
2022-12-12T02:35:20.349Z,-2.08
2022-12-12T02:38:15.113Z,-1.93
2022-12-12T02:41:15.709Z,-2.05
2022-12-12T02:43:42.298Z,-1.96
2022-12-12T02:46:14.725Z,-2.06
2022-12-12T02:49:02.214Z,-2.02
2022-12-12T02:51:30.970Z,-2.15
2022-12-12T02:53:59.942Z,-2.30
2022-12-12T02:56:42.974Z,-2.30
2022-12-12T02:59:12.116Z,-2.32
2022-12-12T03:01:51.010Z,-2.36
2022-12-12T03:05:09.066Z,-2.53
2022-12-12T03:07:50.728Z,-2.32
2022-12-12T03:10:29.619Z,-2.42
2022-12-12T03:13:08.353Z,-2.48
2022-12-12T03:15:48.596Z,-2.54
2022-12-12T03:18:23.722Z,-2.33
2022-12-12T03:20:59.871Z,-2.46
2022-12-12T03:23:29.276Z,-2.60
2022-12-12T03:26:03.415Z,-2.69
2022-12-12T03:28:40.144Z,-2.57
2022-12-12T03:31:09.704Z,-2.59
2022-12-12T03:33:53.724Z,-2.47
2022-12-12T03:36:29.724Z,-2.58
2022-12-12T03:39:00.285Z,-2.50
2022-12-12T03:41:32.280Z,-2.57
2022-12-12T03:44:29.528Z,-2.59
2022-12-12T03:47:08.750Z,-2.68
2022-12-12T03:49:49.765Z,-2.72
2022-12-12T03:52:42.951Z,-2.57
2022-12-12T03:55:16.879Z,-2.39
2022-12-12T03:57:51.830Z,-2.50
2022-12-12T04:00:18.597Z,-2.43
2022-12-12T04:03:33.612Z,-2.38
2022-12-12T04:06:27.430Z,-2.30
2022-12-12T04:09:24.426Z,-2.31
2022-12-12T04:12:56.974Z,-2.29
2022-12-12T04:15:52.059Z,-2.21
2022-12-12T04:18:27.388Z,-2.33
2022-12-12T04:21:35.031Z,-2.18
2022-12-12T04:24:25.165Z,-2.17
2022-12-12T04:27:06.791Z,-1.99
2022-12-12T04:29:57.342Z,-2.19
2022-12-12T04:32:28.516Z,-2.08
2022-12-12T04:35:07.559Z,-2.02
2022-12-12T04:37:50.739Z,-2.10
2022-12-12T04:40:22.434Z,-2.10
2022-12-12T04:43:10.799Z,-2.08
2022-12-12T04:45:41.302Z,-2.16
2022-12-12T04:48:09.987Z,-2.08
2022-12-12T04:50:37.433Z,-2.17
2022-12-12T04:53:11.153Z,-2.12
2022-12-12T04:55:44.748Z,-2.36
2022-12-12T04:58:11.560Z,-2.47
2022-12-12T05:01:08.034Z,-2.49
2022-12-12T05:03:46.263Z,-2.48
2022-12-12T05:06:16.074Z,-2.44
2022-12-12T05:08:48.763Z,-2.46
2022-12-12T05:11:18.464Z,-2.43
2022-12-12T05:13:45.412Z,-2.34
2022-12-12T05:16:34.464Z,-2.33
2022-12-12T05:19:01.902Z,-2.43
2022-12-12T05:21:28.539Z,-2.54
2022-12-12T05:23:55.236Z,-2.47
2022-12-12T05:26:25.890Z,-2.45
2022-12-12T05:28:53.188Z,-2.37
2022-12-12T05:31:20.155Z,-2.23
2022-12-12T05:33:47.246Z,-2.30
2022-12-12T05:36:14.100Z,-2.28
2022-12-12T05:38:41.198Z,-2.13
2022-12-12T05:41:08.234Z,-2.08
2022-12-12T05:43:35.319Z,-2.09
2022-12-12T05:46:02.320Z,-2.06
2022-12-12T05:48:29.050Z,-2.04
2022-12-12T05:50:55.704Z,-2.14
2022-12-12T05:53:23.034Z,-2.00
2022-12-12T05:55:51.476Z,-1.91
2022-12-12T05:58:19.250Z,-1.91
2022-12-12T06:00:49.774Z,-1.96
2022-12-12T06:03:17.242Z,-1.97
2022-12-12T06:05:43.993Z,-1.81
2022-12-12T06:08:10.685Z,-1.93
2022-12-12T06:10:37.586Z,-1.95
2022-12-12T06:13:04.318Z,-2.03
2022-12-12T06:15:31.070Z,-1.91
2022-12-12T06:17:58.640Z,-1.81
2022-12-12T06:20:25.509Z,-1.76
2022-12-12T06:22:53.997Z,-1.90
2022-12-12T06:25:20.951Z,-1.90
2022-12-12T06:27:47.757Z,-2.02
2022-12-12T06:30:14.634Z,-1.96
2022-12-12T06:32:41.499Z,-1.82
2022-12-12T06:35:09.028Z,-1.84
2022-12-12T06:37:36.206Z,-1.74
2022-12-12T06:40:03.984Z,-1.68
2022-12-12T06:42:30.627Z,-1.60
2022-12-12T06:44:57.243Z,-1.63
2022-12-12T06:47:24.226Z,-1.69
2022-12-12T06:49:50.873Z,-1.55
2022-12-12T06:52:17.486Z,-1.48
2022-12-12T06:54:44.210Z,-1.53
2022-12-12T06:57:11.399Z,-1.62
2022-12-12T06:59:38.101Z,-1.64
2022-12-12T07:02:04.821Z,-1.55
2022-12-12T07:04:31.526Z,-1.52
2022-12-12T07:06:58.460Z,-1.38
2022-12-12T07:09:25.237Z,-1.54
2022-12-12T07:11:51.951Z,-1.57
2022-12-12T07:14:18.806Z,-1.60
2022-12-12T07:16:45.459Z,-1.47
2022-12-12T07:19:12.158Z,-1.34
2022-12-12T07:21:38.924Z,-1.46
2022-12-12T07:24:05.748Z,-1.45
2022-12-12T07:26:32.421Z,-1.31
2022-12-12T07:28:59.157Z,-1.25
2022-12-12T07:31:26.635Z,-1.12
2022-12-12T07:33:54.488Z,-1.09
2022-12-12T07:36:21.161Z,-1.11
2022-12-12T07:38:47.875Z,-1.19
2022-12-12T07:41:16.653Z,-1.30
2022-12-12T07:43:47.827Z,-1.22
2022-12-12T07:46:18.200Z,-1.21
2022-12-12T07:48:45.129Z,-1.23
2022-12-12T07:51:12.879Z,-1.11
2022-12-12T07:53:39.515Z,-1.10
2022-12-12T07:56:09.580Z,-1.04
2022-12-12T07:58:36.637Z,-0.97
2022-12-12T08:01:20.967Z,-1.03
2022-12-12T08:03:48.407Z,-0.97
2022-12-12T08:06:18.875Z,-1.08
2022-12-12T08:08:46.148Z,-1.05
2022-12-12T08:11:15.760Z,-1.13
2022-12-12T08:13:42.773Z,-1.07
2022-12-12T08:16:14.556Z,-1.15
2022-12-12T08:18:41.279Z,-1.17
2022-12-12T08:21:09.690Z,-1.13
2022-12-12T08:23:36.929Z,-1.01
2022-12-12T08:26:08.637Z,-1.06
2022-12-12T08:28:35.948Z,-1.02
2022-12-12T08:31:02.950Z,-0.77
2022-12-12T08:33:30.335Z,-0.85
2022-12-12T08:35:57.004Z,-0.88
2022-12-12T08:38:23.757Z,-0.82
2022-12-12T08:40:50.516Z,-0.77
2022-12-12T08:43:17.269Z,-0.72
2022-12-12T08:45:44.044Z,-0.61
2022-12-12T08:48:12.087Z,-0.53
2022-12-12T08:50:41.165Z,-0.61
2022-12-12T08:53:08.362Z,-0.57
2022-12-12T08:55:36.151Z,-0.50
2022-12-12T08:58:03.151Z,-0.43
2022-12-12T09:00:30.015Z,-0.32
2022-12-12T09:02:57.046Z,-0.36
2022-12-12T09:05:25.051Z,-0.35
2022-12-12T09:07:52.236Z,-0.21
2022-12-12T09:10:19.582Z,-0.17
2022-12-12T09:12:53.887Z,-0.01
2022-12-12T09:15:25.924Z,0.10
2022-12-12T09:17:52.722Z,0.14
2022-12-12T09:20:19.467Z,0.16
2022-12-12T09:22:46.118Z,-0.04
2022-12-12T09:25:12.892Z,0.07
2022-12-12T09:27:39.766Z,-0.01
2022-12-12T09:30:06.950Z,0.07
2022-12-12T09:32:33.618Z,0.10
2022-12-12T09:35:00.227Z,-0.03
2022-12-12T09:37:28.363Z,-0.06
2022-12-12T09:39:55.024Z,0.19
2022-12-12T09:42:27.963Z,0.08
2022-12-12T09:44:58.226Z,0.11
2022-12-12T09:47:35.817Z,0.15
2022-12-12T09:50:08.683Z,0.32
2022-12-12T09:52:36.814Z,0.58
2022-12-12T09:55:32.815Z,0.76
2022-12-12T09:58:02.515Z,1.06
2022-12-12T10:00:31.234Z,1.25
2022-12-12T10:03:28.790Z,1.22
2022-12-12T10:06:28.766Z,1.15
2022-12-12T10:09:08.746Z,1.13
2022-12-12T10:11:54.710Z,0.98
2022-12-12T10:14:34.538Z,1.10
2022-12-12T10:17:03.214Z,0.89
2022-12-12T10:19:32.900Z,0.83
2022-12-12T10:22:15.052Z,0.61
2022-12-12T10:24:47.438Z,0.49
2022-12-12T10:27:15.091Z,0.59
2022-12-12T10:29:47.180Z,0.60
2022-12-12T10:32:37.114Z,0.42
2022-12-12T10:35:21.280Z,0.41
2022-12-12T10:38:07.160Z,0.43
2022-12-12T10:40:55.716Z,0.47
2022-12-12T10:43:36.470Z,0.37
2022-12-12T10:46:16.062Z,0.61
2022-12-12T10:48:42.803Z,0.37
2022-12-12T10:51:12.048Z,0.33
2022-12-12T10:53:40.728Z,0.38
2022-12-12T10:56:13.344Z,0.57
2022-12-12T10:58:44.693Z,0.65
2022-12-12T11:01:52.225Z,0.42
2022-12-12T11:04:14.334Z,0.62
2022-12-12T11:06:47.463Z,0.77
2022-12-12T11:09:34.384Z,0.85
2022-12-12T11:12:10.994Z,0.89
2022-12-12T11:14:46.709Z,0.81
2022-12-12T11:17:30.616Z,0.83
2022-12-12T11:19:59.710Z,0.74
2022-12-12T11:22:26.989Z,0.65
2022-12-12T11:24:54.106Z,0.59
2022-12-12T11:27:47.061Z,0.54
2022-12-12T11:30:28.510Z,0.34
2022-12-12T11:32:56.539Z,0.21
2022-12-12T11:35:47.491Z,0.16
2022-12-12T11:38:25.348Z,0.16
2022-12-12T11:41:03.198Z,0.35
2022-12-12T11:43:39.202Z,0.42
2022-12-12T11:46:14.928Z,0.30
2022-12-12T11:48:44.273Z,0.32
2022-12-12T11:51:11.386Z,0.14
2022-12-12T11:53:40.499Z,0.07
2022-12-12T11:56:24.995Z,0.15
2022-12-12T11:58:57.562Z,0.21
2022-12-12T12:02:11.814Z,0.19
2022-12-12T12:05:07.284Z,0.22
2022-12-12T12:07:51.885Z,0.23
2022-12-12T12:10:41.536Z,0.11
2022-12-12T12:13:29.501Z,0.16
2022-12-12T12:16:05.035Z,0.10
2022-12-12T12:18:47.670Z,0.07
2022-12-12T12:21:27.782Z,-0.04
2022-12-12T12:24:28.291Z,-0.15
2022-12-12T12:27:02.514Z,-0.06
2022-12-12T12:29:48.081Z,-0.20
2022-12-12T12:32:26.780Z,-0.26
2022-12-12T12:35:12.801Z,-0.42
2022-12-12T12:37:57.905Z,-0.36
2022-12-12T12:40:48.098Z,-0.41
2022-12-12T12:43:46.438Z,-0.53
2022-12-12T12:46:43.147Z,-0.50
2022-12-12T12:49:13.338Z,-0.61
2022-12-12T12:51:50.229Z,-0.45
2022-12-12T12:54:26.102Z,-0.45
2022-12-12T12:57:00.745Z,-0.41
2022-12-12T12:59:34.726Z,-0.14
2022-12-12T13:02:05.218Z,0.02
2022-12-12T13:04:47.546Z,0.08
2022-12-12T13:07:22.132Z,0.12
2022-12-12T13:10:03.618Z,0.13
2022-12-12T13:12:39.818Z,0.03
2022-12-12T13:15:32.729Z,-0.08
2022-12-12T13:18:11.063Z,0.04
2022-12-12T13:20:50.378Z,-0.10
2022-12-12T13:23:25.410Z,-0.09
2022-12-12T13:25:52.074Z,-0.05
2022-12-12T13:28:23.400Z,-0.30
2022-12-12T13:31:18.212Z,-0.18
2022-12-12T13:33:57.614Z,-0.35
2022-12-12T13:36:29.931Z,-0.35
2022-12-12T13:38:59.743Z,-0.55
2022-12-12T13:41:26.430Z,-0.47
2022-12-12T13:44:00.560Z,-0.42
2022-12-12T13:46:34.756Z,-0.46
2022-12-12T13:49:11.296Z,-0.40
2022-12-12T13:51:41.229Z,-0.29
2022-12-12T13:54:12.642Z,-0.14
2022-12-12T13:57:06.033Z,-0.17
2022-12-12T13:59:53.663Z,-0.24
2022-12-12T14:02:26.387Z,-0.22
2022-12-12T14:05:09.548Z,-0.27
2022-12-12T14:07:36.688Z,-0.30
2022-12-12T14:10:24.469Z,-0.34
2022-12-12T14:12:51.271Z,-0.49
2022-12-12T14:15:29.941Z,-0.50
2022-12-12T14:17:59.686Z,-0.52
2022-12-12T14:20:33.565Z,-0.50
2022-12-12T14:23:00.344Z,-0.53
2022-12-12T14:25:34.797Z,-0.73
2022-12-12T14:28:16.820Z,-0.79
2022-12-12T14:30:46.675Z,-0.77
2022-12-12T14:33:16.152Z,-0.78
2022-12-12T14:35:51.811Z,-1.02
2022-12-12T14:38:30.648Z,-1.16
2022-12-12T14:41:01.358Z,-1.01
2022-12-12T14:43:36.168Z,-1.02
2022-12-12T14:49:05.403Z,-1.24
2022-12-12T14:51:34.479Z,-1.20
2022-12-12T14:54:02.715Z,-1.30
2022-12-12T14:56:36.162Z,-1.41
2022-12-12T14:59:30.001Z,-1.29
2022-12-12T15:02:08.589Z,-1.47
2022-12-12T15:04:38.235Z,-1.49
2022-12-12T15:07:06.988Z,-1.46
2022-12-12T15:09:54.070Z,-1.52
2022-12-12T15:12:24.535Z,-1.66
2022-12-12T15:14:52.276Z,-1.68
2022-12-12T15:17:25.848Z,-1.77
2022-12-12T15:19:58.575Z,-1.78
2022-12-12T15:22:33.230Z,-1.92
2022-12-12T15:25:02.277Z,-1.73
2022-12-12T15:27:28.921Z,-1.73
2022-12-12T15:29:56.867Z,-1.86
2022-12-12T15:32:25.165Z,-1.92
2022-12-12T15:35:20.175Z,-2.05
2022-12-12T15:38:03.163Z,-1.99
2022-12-12T15:40:35.203Z,-1.97
2022-12-12T15:43:14.596Z,-2.08
2022-12-12T15:45:59.094Z,-2.11
2022-12-12T15:48:26.344Z,-1.97
2022-12-12T15:50:57.340Z,-2.13
2022-12-12T15:53:33.401Z,-2.12
2022-12-12T15:56:02.670Z,-2.03
2022-12-12T15:58:34.612Z,-1.97
2022-12-12T16:01:05.182Z,-2.03
2022-12-12T16:03:32.504Z,-2.00
2022-12-12T16:06:05.362Z,-2.07
2022-12-12T16:08:33.418Z,-1.96
2022-12-12T16:11:02.225Z,-1.97
2022-12-12T16:13:40.119Z,-2.14
2022-12-12T16:16:45.492Z,-2.17
2022-12-12T16:19:28.031Z,-2.14
2022-12-12T16:21:55.225Z,-2.07
2022-12-12T16:24:24.403Z,-1.88
2022-12-12T16:26:51.936Z,-2.03
2022-12-12T16:29:18.730Z,-1.96
2022-12-12T16:31:45.899Z,-2.14
2022-12-12T16:34:12.592Z,-1.99
2022-12-12T16:36:42.171Z,-2.10
2022-12-12T16:39:09.735Z,-1.91
2022-12-12T16:41:36.633Z,-2.02
2022-12-12T16:44:03.331Z,-1.98
2022-12-12T16:46:29.987Z,-2.07
2022-12-12T16:49:03.455Z,-2.12
2022-12-12T16:51:33.488Z,-2.00
2022-12-12T16:54:00.525Z,-2.08
2022-12-12T16:56:27.258Z,-2.06
2022-12-12T16:58:56.159Z,-2.06
2022-12-12T17:01:23.094Z,-2.25
2022-12-12T17:03:49.963Z,-2.28
2022-12-12T17:06:16.664Z,-2.33
2022-12-12T17:08:43.323Z,-2.33
2022-12-12T17:11:11.163Z,-2.31
2022-12-12T17:13:41.876Z,-2.27
2022-12-12T17:16:08.553Z,-2.28
2022-12-12T17:18:35.304Z,-2.24
2022-12-12T17:21:01.921Z,-2.33
2022-12-12T17:23:29.283Z,-2.43
2022-12-12T17:26:03.103Z,-2.34
2022-12-12T17:28:33.235Z,-2.19
2022-12-12T17:31:00.015Z,-2.22
2022-12-12T17:33:26.864Z,-2.21
2022-12-12T17:35:58.030Z,-2.14
2022-12-12T17:38:24.699Z,-2.03
2022-12-12T17:40:54.450Z,-2.15
2022-12-12T17:43:21.433Z,-2.11
2022-12-12T17:45:59.751Z,-2.10
2022-12-12T17:48:33.999Z,-2.00
2022-12-12T17:51:06.040Z,-2.10
2022-12-12T17:53:38.482Z,-2.26
2022-12-12T17:56:10.640Z,-2.14
2022-12-12T17:58:41.955Z,-2.29
2022-12-12T18:01:34.027Z,-1.99
2022-12-12T18:04:05.393Z,-2.02
2022-12-12T18:06:41.943Z,-1.88
2022-12-12T18:09:16.157Z,-1.81
2022-12-12T18:11:50.976Z,-2.06
2022-12-12T18:14:24.964Z,-2.05
2022-12-12T18:16:58.475Z,-1.96
2022-12-12T18:19:30.144Z,-2.13
2022-12-12T18:22:01.291Z,-2.30
2022-12-12T18:24:29.536Z,-2.36
2022-12-12T18:27:01.235Z,-2.21
2022-12-12T18:29:33.919Z,-2.19
2022-12-12T18:32:01.614Z,-2.18
2022-12-12T18:34:29.342Z,-2.18
2022-12-12T18:36:57.259Z,-2.16
2022-12-12T18:39:25.475Z,-2.18
2022-12-12T18:41:59.728Z,-2.24
2022-12-12T18:44:29.489Z,-2.39
2022-12-12T18:46:58.817Z,-2.43
2022-12-12T18:49:25.600Z,-2.50
2022-12-12T18:51:55.856Z,-2.32
2022-12-12T18:54:26.321Z,-2.49
2022-12-12T18:56:53.661Z,-2.45
2022-12-12T18:59:22.832Z,-2.38
2022-12-12T19:01:55.599Z,-2.38
2022-12-12T19:04:24.394Z,-2.54
2022-12-12T19:06:52.023Z,-2.55
2022-12-12T19:09:27.165Z,-2.63
2022-12-12T19:12:03.007Z,-2.68
2022-12-12T19:14:45.802Z,-2.71
2022-12-12T19:17:23.570Z,-2.75
2022-12-12T19:19:54.486Z,-2.72
2022-12-12T19:25:09.911Z,-2.70
2022-12-12T19:27:37.239Z,-2.53
2022-12-12T19:30:07.977Z,-2.58
2022-12-12T19:36:54.600Z,-2.50
2022-12-12T19:39:21.355Z,-2.55
2022-12-12T19:41:48.044Z,-2.52
2022-12-12T19:44:15.005Z,-2.60
2022-12-12T19:46:43.310Z,-2.61
2022-12-12T19:49:12.976Z,-2.64
2022-12-12T19:51:40.215Z,-2.73
2022-12-12T19:54:09.471Z,-2.72
2022-12-12T19:56:38.361Z,-2.72
2022-12-12T19:59:05.127Z,-2.79
2022-12-12T20:01:34.050Z,-2.77
2022-12-12T20:04:13.384Z,-2.69
2022-12-12T20:06:42.108Z,-2.63
2022-12-12T20:09:09.474Z,-2.74
2022-12-12T20:11:38.998Z,-2.78
2022-12-12T20:14:06.146Z,-2.80
2022-12-12T20:16:33.069Z,-2.71
2022-12-12T20:19:00.321Z,-2.82
2022-12-12T20:21:59.671Z,-2.80
2022-12-12T20:24:16.790Z,-2.82
2022-12-12T20:26:44.162Z,-2.88
2022-12-12T20:29:11.938Z,-2.66
2022-12-12T20:31:43.576Z,-2.94
2022-12-12T20:34:10.577Z,-2.79
2022-12-12T20:36:37.479Z,-2.77
2022-12-12T20:39:06.341Z,-2.82
2022-12-12T20:41:36.421Z,-2.81
2022-12-12T20:44:03.801Z,-2.96
2022-12-12T20:46:33.676Z,-2.92
2022-12-12T20:49:05.173Z,-2.96
2022-12-12T20:54:21.569Z,-2.89
2022-12-12T20:56:51.683Z,-2.99
2022-12-12T20:59:18.337Z,-3.06
2022-12-12T21:01:47.151Z,-2.83
2022-12-12T21:04:14.550Z,-2.86
2022-12-12T21:06:44.767Z,-2.82
2022-12-12T21:09:16.330Z,-2.73
2022-12-12T21:11:46.118Z,-2.73
2022-12-12T21:14:13.107Z,-2.82
2022-12-12T21:16:40.241Z,-2.75
2022-12-12T21:19:11.347Z,-3.00
2022-12-12T21:21:42.602Z,-2.98
2022-12-12T21:24:13.376Z,-2.77
2022-12-12T21:26:40.140Z,-2.88
2022-12-12T21:29:07.275Z,-2.95
2022-12-12T21:31:37.257Z,-3.03
2022-12-12T21:34:05.107Z,-3.06
2022-12-12T21:36:32.816Z,-3.01
2022-12-12T21:39:01.135Z,-2.93
2022-12-12T21:41:28.338Z,-2.92
2022-12-12T21:43:56.366Z,-2.90
2022-12-12T21:46:25.482Z,-3.00
2022-12-12T21:49:11.536Z,-2.98
2022-12-12T21:51:39.382Z,-2.92
2022-12-12T21:54:07.195Z,-3.02
2022-12-12T21:56:33.922Z,-3.00
2022-12-12T21:59:00.577Z,-2.99
2022-12-12T22:01:27.683Z,-2.94
2022-12-12T22:03:55.077Z,-2.96
2022-12-12T22:06:33.065Z,-2.91
2022-12-12T22:09:01.179Z,-3.02
2022-12-12T22:11:40.212Z,-2.79
2022-12-12T22:14:16.474Z,-2.75
2022-12-12T22:16:43.190Z,-2.81
2022-12-12T22:19:14.380Z,-2.92
2022-12-12T22:21:41.171Z,-2.96
2022-12-12T22:24:08.228Z,-3.09
2022-12-12T22:26:40.151Z,-3.28
2022-12-12T22:29:12.698Z,-3.22
2022-12-12T22:31:40.350Z,-3.28
2022-12-12T22:34:13.294Z,-3.32
2022-12-12T22:36:40.389Z,-3.37
2022-12-12T22:39:08.758Z,-3.41
2022-12-12T22:41:35.400Z,-3.40
2022-12-12T22:44:04.409Z,-3.50
2022-12-12T22:46:31.221Z,-3.63
2022-12-12T22:49:00.433Z,-3.69
2022-12-12T22:51:30.136Z,-3.59
2022-12-12T22:53:58.730Z,-3.63
2022-12-12T22:56:25.563Z,-3.55
2022-12-12T22:58:52.383Z,-3.67
2022-12-12T23:01:19.964Z,-3.72
2022-12-12T23:03:47.498Z,-3.73
2022-12-12T23:06:22.628Z,-3.80
2022-12-12T23:08:51.402Z,-3.90
2022-12-12T23:11:19.683Z,-3.89
2022-12-12T23:13:46.589Z,-3.93
2022-12-12T23:16:15.982Z,-3.90
2022-12-12T23:18:43.165Z,-3.98
2022-12-12T23:21:16.680Z,-3.93
2022-12-12T23:23:44.676Z,-3.75
2022-12-12T23:26:14.515Z,-3.82
2022-12-12T23:28:41.755Z,-3.94
2022-12-12T23:31:23.744Z,-4.05
2022-12-12T23:33:55.474Z,-4.11
2022-12-12T23:36:22.859Z,-4.17
2022-12-12T23:38:54.677Z,-4.20
2022-12-12T23:41:21.522Z,-4.13
2022-12-12T23:43:49.606Z,-4.13
2022-12-12T23:46:28.544Z,-4.24
2022-12-12T23:48:59.483Z,-4.30
2022-12-12T23:51:27.795Z,-4.39
2022-12-12T23:53:57.669Z,-4.43
2022-12-12T23:56:25.468Z,-4.36
2022-12-12T23:58:53.429Z,-4.37
